sensor_id;sensor_type;location;lat;lon;timestamp;temperature;humidity
21216;DHT22;10765;50.954;5.322;2022-11-20T00:01:07;3.30;99.90
21216;DHT22;10765;50.954;5.322;2022-11-20T00:03:34;3.20;99.90
21216;DHT22;10765;50.954;5.322;2022-11-20T00:06:02;3.20;99.90
21216;DHT22;10765;50.954;5.322;2022-11-20T00:08:29;3.20;99.90
21216;DHT22;10765;50.954;5.322;2022-11-20T00:10:56;3.30;99.90
21216;DHT22;10765;50.954;5.322;2022-11-20T00:13:23;3.40;99.90
21216;DHT22;10765;50.954;5.322;2022-11-20T00:15:58;3.40;99.90
21216;DHT22;10765;50.954;5.322;2022-11-20T00:18:25;3.60;99.90
21216;DHT22;10765;50.954;5.322;2022-11-20T00:20:52;3.80;99.90
21216;DHT22;10765;50.954;5.322;2022-11-20T00:23:19;3.80;97.60
21216;DHT22;10765;50.954;5.322;2022-11-20T00:25:46;3.80;91.90
21216;DHT22;10765;50.954;5.322;2022-11-20T00:28:13;3.70;84.70
21216;DHT22;10765;50.954;5.322;2022-11-20T00:30:39;3.60;96.20
21216;DHT22;10765;50.954;5.322;2022-11-20T00:33:08;3.70;99.90
21216;DHT22;10765;50.954;5.322;2022-11-20T00:35:35;3.70;99.90
21216;DHT22;10765;50.954;5.322;2022-11-20T00:38:01;3.70;99.90
21216;DHT22;10765;50.954;5.322;2022-11-20T00:40:28;3.70;99.90
21216;DHT22;10765;50.954;5.322;2022-11-20T00:42:55;3.70;99.90
21216;DHT22;10765;50.954;5.322;2022-11-20T00:45:22;3.50;99.90
21216;DHT22;10765;50.954;5.322;2022-11-20T00:47:49;3.40;99.90
21216;DHT22;10765;50.954;5.322;2022-11-20T00:50:18;3.50;99.90
21216;DHT22;10765;50.954;5.322;2022-11-20T00:52:44;3.50;99.90
21216;DHT22;10765;50.954;5.322;2022-11-20T00:55:11;3.60;99.90
21216;DHT22;10765;50.954;5.322;2022-11-20T00:57:38;3.70;99.90
21216;DHT22;10765;50.954;5.322;2022-11-20T01:00:06;3.70;99.90
21216;DHT22;10765;50.954;5.322;2022-11-20T01:02:33;3.70;99.90
21216;DHT22;10765;50.954;5.322;2022-11-20T01:05:00;3.70;99.90
21216;DHT22;10765;50.954;5.322;2022-11-20T01:07:28;3.80;99.90
21216;DHT22;10765;50.954;5.322;2022-11-20T01:09:55;3.80;99.90
21216;DHT22;10765;50.954;5.322;2022-11-20T01:12:21;3.80;99.90
21216;DHT22;10765;50.954;5.322;2022-11-20T01:14:48;3.90;99.90
21216;DHT22;10765;50.954;5.322;2022-11-20T01:17:15;3.90;99.90
21216;DHT22;10765;50.954;5.322;2022-11-20T01:19:42;3.80;99.90
21216;DHT22;10765;50.954;5.322;2022-11-20T01:22:09;3.60;99.90
21216;DHT22;10765;50.954;5.322;2022-11-20T01:24:37;3.60;99.90
21216;DHT22;10765;50.954;5.322;2022-11-20T01:27:05;3.60;99.90
21216;DHT22;10765;50.954;5.322;2022-11-20T01:29:32;3.60;99.90
21216;DHT22;10765;50.954;5.322;2022-11-20T01:31:59;3.60;99.90
21216;DHT22;10765;50.954;5.322;2022-11-20T01:34:26;3.70;99.90
21216;DHT22;10765;50.954;5.322;2022-11-20T01:36:53;3.70;99.90
21216;DHT22;10765;50.954;5.322;2022-11-20T01:39:22;3.80;99.90
21216;DHT22;10765;50.954;5.322;2022-11-20T01:41:52;3.80;99.90
21216;DHT22;10765;50.954;5.322;2022-11-20T01:44:48;3.90;99.90
21216;DHT22;10765;50.954;5.322;2022-11-20T01:47:18;4.00;99.90
21216;DHT22;10765;50.954;5.322;2022-11-20T01:49:49;3.90;99.90
21216;DHT22;10765;50.954;5.322;2022-11-20T01:52:21;4.00;99.90
21216;DHT22;10765;50.954;5.322;2022-11-20T01:54:53;3.90;99.90
21216;DHT22;10765;50.954;5.322;2022-11-20T01:57:24;3.90;99.90
21216;DHT22;10765;50.954;5.322;2022-11-20T01:59:57;3.90;99.90
21216;DHT22;10765;50.954;5.322;2022-11-20T02:02:26;3.90;99.90
21216;DHT22;10765;50.954;5.322;2022-11-20T02:04:57;4.00;99.90
21216;DHT22;10765;50.954;5.322;2022-11-20T02:07:27;3.90;99.90
21216;DHT22;10765;50.954;5.322;2022-11-20T02:09:55;4.00;99.90
21216;DHT22;10765;50.954;5.322;2022-11-20T02:12:23;4.00;99.90
21216;DHT22;10765;50.954;5.322;2022-11-20T02:15:10;4.10;99.90
21216;DHT22;10765;50.954;5.322;2022-11-20T02:17:37;4.10;99.90
21216;DHT22;10765;50.954;5.322;2022-11-20T02:20:05;4.20;99.90
21216;DHT22;10765;50.954;5.322;2022-11-20T02:22:37;4.20;99.90
21216;DHT22;10765;50.954;5.322;2022-11-20T02:25:07;4.00;99.90
21216;DHT22;10765;50.954;5.322;2022-11-20T02:27:34;4.00;99.90
21216;DHT22;10765;50.954;5.322;2022-11-20T02:30:03;3.90;99.90
21216;DHT22;10765;50.954;5.322;2022-11-20T02:32:32;3.90;99.90
21216;DHT22;10765;50.954;5.322;2022-11-20T02:35:06;4.00;99.90
21216;DHT22;10765;50.954;5.322;2022-11-20T02:37:35;4.00;99.90
21216;DHT22;10765;50.954;5.322;2022-11-20T02:40:06;4.00;99.90
21216;DHT22;10765;50.954;5.322;2022-11-20T02:42:33;4.00;99.90
21216;DHT22;10765;50.954;5.322;2022-11-20T02:45:00;3.90;99.90
21216;DHT22;10765;50.954;5.322;2022-11-20T02:47:27;3.90;99.90
21216;DHT22;10765;50.954;5.322;2022-11-20T02:49:53;3.90;99.90
21216;DHT22;10765;50.954;5.322;2022-11-20T02:52:20;4.00;99.90
21216;DHT22;10765;50.954;5.322;2022-11-20T02:54:47;4.00;99.90
21216;DHT22;10765;50.954;5.322;2022-11-20T02:57:15;3.90;99.90
21216;DHT22;10765;50.954;5.322;2022-11-20T02:59:42;3.90;99.90
21216;DHT22;10765;50.954;5.322;2022-11-20T03:02:09;3.90;99.90
21216;DHT22;10765;50.954;5.322;2022-11-20T03:04:36;3.80;99.90
21216;DHT22;10765;50.954;5.322;2022-11-20T03:07:04;3.80;99.90
21216;DHT22;10765;50.954;5.322;2022-11-20T03:09:30;3.70;99.90
21216;DHT22;10765;50.954;5.322;2022-11-20T03:11:57;3.70;99.90
21216;DHT22;10765;50.954;5.322;2022-11-20T03:14:25;3.70;99.90
21216;DHT22;10765;50.954;5.322;2022-11-20T03:16:52;3.70;99.90
21216;DHT22;10765;50.954;5.322;2022-11-20T03:19:19;3.90;99.90
21216;DHT22;10765;50.954;5.322;2022-11-20T03:21:46;3.90;99.90
21216;DHT22;10765;50.954;5.322;2022-11-20T03:24:13;3.80;99.90
21216;DHT22;10765;50.954;5.322;2022-11-20T03:26:40;3.80;99.90
21216;DHT22;10765;50.954;5.322;2022-11-20T03:29:07;3.80;99.90
21216;DHT22;10765;50.954;5.322;2022-11-20T03:31:38;3.80;99.90
21216;DHT22;10765;50.954;5.322;2022-11-20T03:34:07;3.80;99.90
21216;DHT22;10765;50.954;5.322;2022-11-20T03:36:34;3.60;99.90
21216;DHT22;10765;50.954;5.322;2022-11-20T03:39:01;3.60;99.90
21216;DHT22;10765;50.954;5.322;2022-11-20T03:41:29;3.50;99.90
21216;DHT22;10765;50.954;5.322;2022-11-20T03:43:58;3.50;99.90
21216;DHT22;10765;50.954;5.322;2022-11-20T03:46:26;3.70;99.90
21216;DHT22;10765;50.954;5.322;2022-11-20T03:48:55;3.80;99.90
21216;DHT22;10765;50.954;5.322;2022-11-20T03:51:24;3.90;99.90
21216;DHT22;10765;50.954;5.322;2022-11-20T03:53:53;3.90;99.90
21216;DHT22;10765;50.954;5.322;2022-11-20T03:56:22;4.00;99.90
21216;DHT22;10765;50.954;5.322;2022-11-20T03:58:49;4.00;99.90
21216;DHT22;10765;50.954;5.322;2022-11-20T04:01:17;4.00;99.90
21216;DHT22;10765;50.954;5.322;2022-11-20T04:03:45;4.00;99.90
21216;DHT22;10765;50.954;5.322;2022-11-20T04:06:15;4.10;99.90
21216;DHT22;10765;50.954;5.322;2022-11-20T04:08:42;4.10;99.90
21216;DHT22;10765;50.954;5.322;2022-11-20T04:11:11;4.10;97.80
21216;DHT22;10765;50.954;5.322;2022-11-20T04:13:38;4.10;99.90
21216;DHT22;10765;50.954;5.322;2022-11-20T04:16:06;4.20;99.90
21216;DHT22;10765;50.954;5.322;2022-11-20T04:18:33;4.20;99.90
21216;DHT22;10765;50.954;5.322;2022-11-20T04:21:00;4.10;99.90
21216;DHT22;10765;50.954;5.322;2022-11-20T04:23:29;4.00;99.90
21216;DHT22;10765;50.954;5.322;2022-11-20T04:26:01;3.80;99.90
21216;DHT22;10765;50.954;5.322;2022-11-20T04:28:28;3.90;99.90
21216;DHT22;10765;50.954;5.322;2022-11-20T04:31:01;4.00;99.90
21216;DHT22;10765;50.954;5.322;2022-11-20T04:33:28;3.70;99.90
21216;DHT22;10765;50.954;5.322;2022-11-20T04:35:55;3.70;99.90
21216;DHT22;10765;50.954;5.322;2022-11-20T04:38:26;3.70;99.90
21216;DHT22;10765;50.954;5.322;2022-11-20T04:40:57;3.80;99.90
21216;DHT22;10765;50.954;5.322;2022-11-20T04:43:25;3.80;99.90
21216;DHT22;10765;50.954;5.322;2022-11-20T04:45:52;3.80;99.90
21216;DHT22;10765;50.954;5.322;2022-11-20T04:48:19;3.80;99.90
21216;DHT22;10765;50.954;5.322;2022-11-20T04:50:46;3.80;99.90
21216;DHT22;10765;50.954;5.322;2022-11-20T04:53:14;3.80;99.90
21216;DHT22;10765;50.954;5.322;2022-11-20T04:55:41;3.80;99.90
21216;DHT22;10765;50.954;5.322;2022-11-20T04:58:09;3.90;99.90
21216;DHT22;10765;50.954;5.322;2022-11-20T05:00:36;3.80;99.90
21216;DHT22;10765;50.954;5.322;2022-11-20T05:03:03;3.90;99.90
21216;DHT22;10765;50.954;5.322;2022-11-20T05:05:30;4.00;99.90
21216;DHT22;10765;50.954;5.322;2022-11-20T05:07:57;4.00;99.90
21216;DHT22;10765;50.954;5.322;2022-11-20T05:10:24;4.00;99.90
21216;DHT22;10765;50.954;5.322;2022-11-20T05:12:51;4.10;99.90
21216;DHT22;10765;50.954;5.322;2022-11-20T05:15:19;4.00;99.90
21216;DHT22;10765;50.954;5.322;2022-11-20T05:17:47;4.00;99.90
21216;DHT22;10765;50.954;5.322;2022-11-20T05:20:14;4.00;99.90
21216;DHT22;10765;50.954;5.322;2022-11-20T05:22:41;3.80;99.90
21216;DHT22;10765;50.954;5.322;2022-11-20T05:25:09;3.80;99.90
21216;DHT22;10765;50.954;5.322;2022-11-20T05:27:36;3.90;99.90
21216;DHT22;10765;50.954;5.322;2022-11-20T05:30:03;4.00;99.90
21216;DHT22;10765;50.954;5.322;2022-11-20T05:32:31;4.00;99.90
21216;DHT22;10765;50.954;5.322;2022-11-20T05:34:58;4.00;99.90
21216;DHT22;10765;50.954;5.322;2022-11-20T05:37:25;4.10;99.90
21216;DHT22;10765;50.954;5.322;2022-11-20T05:39:52;4.10;99.90
21216;DHT22;10765;50.954;5.322;2022-11-20T05:42:19;4.10;99.90
21216;DHT22;10765;50.954;5.322;2022-11-20T05:44:58;4.20;99.90
21216;DHT22;10765;50.954;5.322;2022-11-20T05:47:25;4.10;99.90
21216;DHT22;10765;50.954;5.322;2022-11-20T05:49:53;4.00;99.90
21216;DHT22;10765;50.954;5.322;2022-11-20T05:52:20;4.00;99.90
21216;DHT22;10765;50.954;5.322;2022-11-20T05:54:47;4.10;99.90
21216;DHT22;10765;50.954;5.322;2022-11-20T05:57:14;4.20;99.90
21216;DHT22;10765;50.954;5.322;2022-11-20T05:59:41;4.20;99.90
21216;DHT22;10765;50.954;5.322;2022-11-20T06:02:08;4.40;99.90
21216;DHT22;10765;50.954;5.322;2022-11-20T06:04:35;4.30;99.90
21216;DHT22;10765;50.954;5.322;2022-11-20T06:07:04;4.40;99.90
21216;DHT22;10765;50.954;5.322;2022-11-20T06:09:31;4.30;99.90
21216;DHT22;10765;50.954;5.322;2022-11-20T06:11:58;4.20;99.90
21216;DHT22;10765;50.954;5.322;2022-11-20T06:14:25;4.00;99.90
21216;DHT22;10765;50.954;5.322;2022-11-20T06:16:52;4.10;99.90
21216;DHT22;10765;50.954;5.322;2022-11-20T06:19:19;3.90;99.90
21216;DHT22;10765;50.954;5.322;2022-11-20T06:21:47;4.10;99.90
21216;DHT22;10765;50.954;5.322;2022-11-20T06:24:17;4.00;99.90
21216;DHT22;10765;50.954;5.322;2022-11-20T06:26:44;3.90;99.90
21216;DHT22;10765;50.954;5.322;2022-11-20T06:29:11;3.90;99.90
21216;DHT22;10765;50.954;5.322;2022-11-20T06:31:38;4.10;99.90
21216;DHT22;10765;50.954;5.322;2022-11-20T06:34:05;4.00;99.90
21216;DHT22;10765;50.954;5.322;2022-11-20T06:36:33;4.00;99.90
21216;DHT22;10765;50.954;5.322;2022-11-20T06:39:00;4.10;99.90
21216;DHT22;10765;50.954;5.322;2022-11-20T06:41:28;4.20;99.90
21216;DHT22;10765;50.954;5.322;2022-11-20T06:43:55;4.30;99.90
21216;DHT22;10765;50.954;5.322;2022-11-20T06:46:22;4.30;99.90
21216;DHT22;10765;50.954;5.322;2022-11-20T06:48:49;4.30;99.90
21216;DHT22;10765;50.954;5.322;2022-11-20T06:51:17;4.50;99.90
21216;DHT22;10765;50.954;5.322;2022-11-20T06:53:44;4.70;99.90
21216;DHT22;10765;50.954;5.322;2022-11-20T06:56:11;4.70;99.90
21216;DHT22;10765;50.954;5.322;2022-11-20T06:58:39;4.70;99.90
21216;DHT22;10765;50.954;5.322;2022-11-20T07:01:08;4.70;99.90
21216;DHT22;10765;50.954;5.322;2022-11-20T07:03:35;4.80;99.90
21216;DHT22;10765;50.954;5.322;2022-11-20T07:06:03;4.80;99.90
21216;DHT22;10765;50.954;5.322;2022-11-20T07:08:31;4.80;99.90
21216;DHT22;10765;50.954;5.322;2022-11-20T07:10:58;4.70;99.90
21216;DHT22;10765;50.954;5.322;2022-11-20T07:13:25;4.70;99.90
21216;DHT22;10765;50.954;5.322;2022-11-20T07:15:54;4.50;99.90
21216;DHT22;10765;50.954;5.322;2022-11-20T07:18:21;4.50;99.90
21216;DHT22;10765;50.954;5.322;2022-11-20T07:20:48;4.70;99.90
21216;DHT22;10765;50.954;5.322;2022-11-20T07:23:15;4.90;99.90
21216;DHT22;10765;50.954;5.322;2022-11-20T07:25:41;4.90;99.90
21216;DHT22;10765;50.954;5.322;2022-11-20T07:28:08;4.90;99.90
21216;DHT22;10765;50.954;5.322;2022-11-20T07:30:36;4.90;99.90
21216;DHT22;10765;50.954;5.322;2022-11-20T07:33:04;4.90;99.90
21216;DHT22;10765;50.954;5.322;2022-11-20T07:35:31;5.00;99.90
21216;DHT22;10765;50.954;5.322;2022-11-20T07:37:58;4.90;99.90
21216;DHT22;10765;50.954;5.322;2022-11-20T07:40:25;4.70;99.90
21216;DHT22;10765;50.954;5.322;2022-11-20T07:42:54;4.80;99.90
21216;DHT22;10765;50.954;5.322;2022-11-20T07:45:23;4.80;99.90
21216;DHT22;10765;50.954;5.322;2022-11-20T07:47:50;4.90;99.90
21216;DHT22;10765;50.954;5.322;2022-11-20T07:50:19;4.90;99.90
21216;DHT22;10765;50.954;5.322;2022-11-20T07:52:46;5.00;99.90
21216;DHT22;10765;50.954;5.322;2022-11-20T07:55:14;5.00;99.90
21216;DHT22;10765;50.954;5.322;2022-11-20T07:57:41;5.10;99.90
21216;DHT22;10765;50.954;5.322;2022-11-20T08:00:10;5.20;99.90
21216;DHT22;10765;50.954;5.322;2022-11-20T08:02:37;5.30;99.90
21216;DHT22;10765;50.954;5.322;2022-11-20T08:05:06;5.40;99.90
21216;DHT22;10765;50.954;5.322;2022-11-20T08:07:37;5.50;99.90
21216;DHT22;10765;50.954;5.322;2022-11-20T08:10:05;5.70;99.90
21216;DHT22;10765;50.954;5.322;2022-11-20T08:12:33;5.70;99.90
21216;DHT22;10765;50.954;5.322;2022-11-20T08:15:17;5.80;99.90
21216;DHT22;10765;50.954;5.322;2022-11-20T08:17:44;5.70;99.90
21216;DHT22;10765;50.954;5.322;2022-11-20T08:20:10;5.60;99.90
21216;DHT22;10765;50.954;5.322;2022-11-20T08:22:41;5.60;99.90
21216;DHT22;10765;50.954;5.322;2022-11-20T08:25:08;5.80;99.90
21216;DHT22;10765;50.954;5.322;2022-11-20T08:27:35;5.70;99.90
21216;DHT22;10765;50.954;5.322;2022-11-20T08:30:02;5.60;99.90
21216;DHT22;10765;50.954;5.322;2022-11-20T08:32:30;5.50;99.90
21216;DHT22;10765;50.954;5.322;2022-11-20T08:34:57;5.50;99.90
21216;DHT22;10765;50.954;5.322;2022-11-20T08:37:24;5.50;99.90
21216;DHT22;10765;50.954;5.322;2022-11-20T08:39:52;5.50;99.90
21216;DHT22;10765;50.954;5.322;2022-11-20T08:42:22;5.60;99.90
21216;DHT22;10765;50.954;5.322;2022-11-20T08:44:49;5.70;99.90
21216;DHT22;10765;50.954;5.322;2022-11-20T08:47:16;5.70;99.90
21216;DHT22;10765;50.954;5.322;2022-11-20T08:49:43;5.70;99.90
21216;DHT22;10765;50.954;5.322;2022-11-20T08:52:10;5.80;99.90
21216;DHT22;10765;50.954;5.322;2022-11-20T08:54:36;5.90;99.90
21216;DHT22;10765;50.954;5.322;2022-11-20T08:57:05;6.10;99.90
21216;DHT22;10765;50.954;5.322;2022-11-20T08:59:32;6.30;99.90
21216;DHT22;10765;50.954;5.322;2022-11-20T09:01:59;6.30;99.90
21216;DHT22;10765;50.954;5.322;2022-11-20T09:04:26;6.40;99.90
21216;DHT22;10765;50.954;5.322;2022-11-20T09:06:53;6.50;99.90
21216;DHT22;10765;50.954;5.322;2022-11-20T09:09:20;6.60;77.90
21216;DHT22;10765;50.954;5.322;2022-11-20T09:11:47;6.40;99.50
21216;DHT22;10765;50.954;5.322;2022-11-20T09:14:16;6.60;99.90
21216;DHT22;10765;50.954;5.322;2022-11-20T09:16:44;6.40;84.30
21216;DHT22;10765;50.954;5.322;2022-11-20T09:19:11;6.40;99.90
21216;DHT22;10765;50.954;5.322;2022-11-20T09:21:38;6.60;99.90
21216;DHT22;10765;50.954;5.322;2022-11-20T09:24:06;6.50;99.90
21216;DHT22;10765;50.954;5.322;2022-11-20T09:26:33;6.50;99.90
21216;DHT22;10765;50.954;5.322;2022-11-20T09:28:59;6.60;99.90
21216;DHT22;10765;50.954;5.322;2022-11-20T09:31:27;6.60;99.90
21216;DHT22;10765;50.954;5.322;2022-11-20T09:33:54;6.60;99.90
21216;DHT22;10765;50.954;5.322;2022-11-20T09:36:21;6.60;99.90
21216;DHT22;10765;50.954;5.322;2022-11-20T09:38:48;6.40;99.90
21216;DHT22;10765;50.954;5.322;2022-11-20T09:41:36;6.40;99.90
21216;DHT22;10765;50.954;5.322;2022-11-20T09:44:17;6.70;99.90
21216;DHT22;10765;50.954;5.322;2022-11-20T09:46:54;6.90;99.90
21216;DHT22;10765;50.954;5.322;2022-11-20T09:49:28;6.90;99.90
21216;DHT22;10765;50.954;5.322;2022-11-20T09:52:01;6.90;99.90
21216;DHT22;10765;50.954;5.322;2022-11-20T09:54:34;7.00;78.70
21216;DHT22;10765;50.954;5.322;2022-11-20T09:57:08;7.00;96.20
21216;DHT22;10765;50.954;5.322;2022-11-20T09:59:39;6.90;99.90
21216;DHT22;10765;50.954;5.322;2022-11-20T10:02:16;7.00;99.90
21216;DHT22;10765;50.954;5.322;2022-11-20T10:04:47;6.90;99.90
21216;DHT22;10765;50.954;5.322;2022-11-20T10:07:22;6.70;99.90
21216;DHT22;10765;50.954;5.322;2022-11-20T10:09:53;6.60;99.90
21216;DHT22;10765;50.954;5.322;2022-11-20T10:12:28;6.60;99.90
21216;DHT22;10765;50.954;5.322;2022-11-20T10:15:11;6.50;99.90
21216;DHT22;10765;50.954;5.322;2022-11-20T10:17:58;6.50;99.90
21216;DHT22;10765;50.954;5.322;2022-11-20T10:20:35;6.60;99.90
21216;DHT22;10765;50.954;5.322;2022-11-20T10:23:26;6.50;99.90
21216;DHT22;10765;50.954;5.322;2022-11-20T10:26:01;6.50;99.90
21216;DHT22;10765;50.954;5.322;2022-11-20T10:28:38;6.50;99.90
21216;DHT22;10765;50.954;5.322;2022-11-20T10:31:14;6.50;99.90
21216;DHT22;10765;50.954;5.322;2022-11-20T10:33:45;6.70;99.90
21216;DHT22;10765;50.954;5.322;2022-11-20T10:36:19;6.70;99.90
21216;DHT22;10765;50.954;5.322;2022-11-20T10:38:49;6.80;99.90
21216;DHT22;10765;50.954;5.322;2022-11-20T10:41:21;6.80;99.90
21216;DHT22;10765;50.954;5.322;2022-11-20T10:43:57;6.80;99.90
21216;DHT22;10765;50.954;5.322;2022-11-20T10:46:34;6.90;99.90
21216;DHT22;10765;50.954;5.322;2022-11-20T10:49:11;7.00;99.90
21216;DHT22;10765;50.954;5.322;2022-11-20T10:51:47;7.00;99.90
21216;DHT22;10765;50.954;5.322;2022-11-20T10:54:24;7.00;99.90
21216;DHT22;10765;50.954;5.322;2022-11-20T10:56:58;7.00;99.90
21216;DHT22;10765;50.954;5.322;2022-11-20T10:59:41;6.90;99.90
21216;DHT22;10765;50.954;5.322;2022-11-20T11:02:18;7.00;99.90
21216;DHT22;10765;50.954;5.322;2022-11-20T11:04:47;7.00;99.90
21216;DHT22;10765;50.954;5.322;2022-11-20T11:07:19;7.20;99.90
21216;DHT22;10765;50.954;5.322;2022-11-20T11:09:49;7.30;99.90
21216;DHT22;10765;50.954;5.322;2022-11-20T11:12:16;7.60;99.90
21216;DHT22;10765;50.954;5.322;2022-11-20T11:14:45;7.70;99.90
21216;DHT22;10765;50.954;5.322;2022-11-20T11:17:22;7.70;99.90
21216;DHT22;10765;50.954;5.322;2022-11-20T11:20:06;7.80;99.90
21216;DHT22;10765;50.954;5.322;2022-11-20T11:22:34;7.80;99.90
21216;DHT22;10765;50.954;5.322;2022-11-20T11:25:22;7.80;99.90
21216;DHT22;10765;50.954;5.322;2022-11-20T11:27:51;7.90;99.90
21216;DHT22;10765;50.954;5.322;2022-11-20T11:30:19;7.80;99.90
21216;DHT22;10765;50.954;5.322;2022-11-20T11:32:46;7.80;99.90
21216;DHT22;10765;50.954;5.322;2022-11-20T11:35:24;7.90;99.90
21216;DHT22;10765;50.954;5.322;2022-11-20T11:37:53;8.20;99.90
21216;DHT22;10765;50.954;5.322;2022-11-20T11:40:22;8.20;99.90
21216;DHT22;10765;50.954;5.322;2022-11-20T11:42:54;8.40;99.90
21216;DHT22;10765;50.954;5.322;2022-11-20T11:45:23;8.30;99.90
21216;DHT22;10765;50.954;5.322;2022-11-20T11:47:50;8.40;99.90
21216;DHT22;10765;50.954;5.322;2022-11-20T11:50:22;8.60;99.90
21216;DHT22;10765;50.954;5.322;2022-11-20T11:53:01;8.80;99.90
21216;DHT22;10765;50.954;5.322;2022-11-20T11:55:34;8.90;99.90
21216;DHT22;10765;50.954;5.322;2022-11-20T11:58:16;8.90;99.90
21216;DHT22;10765;50.954;5.322;2022-11-20T12:00:54;8.80;99.90
21216;DHT22;10765;50.954;5.322;2022-11-20T12:03:24;8.90;99.90
21216;DHT22;10765;50.954;5.322;2022-11-20T12:05:58;9.10;99.90
21216;DHT22;10765;50.954;5.322;2022-11-20T12:08:31;9.30;99.90
21216;DHT22;10765;50.954;5.322;2022-11-20T12:11:04;9.40;99.90
21216;DHT22;10765;50.954;5.322;2022-11-20T12:13:42;9.60;99.90
21216;DHT22;10765;50.954;5.322;2022-11-20T12:16:13;9.90;99.50
21216;DHT22;10765;50.954;5.322;2022-11-20T12:18:41;10.00;86.90
21216;DHT22;10765;50.954;5.322;2022-11-20T12:21:18;10.20;49.40
21216;DHT22;10765;50.954;5.322;2022-11-20T12:23:57;10.30;26.90
21216;DHT22;10765;50.954;5.322;2022-11-20T12:26:36;10.10;1.00
21216;DHT22;10765;50.954;5.322;2022-11-20T12:29:14;10.10;26.80
21216;DHT22;10765;50.954;5.322;2022-11-20T12:32:04;10.10;1.00
21216;DHT22;10765;50.954;5.322;2022-11-20T12:34:43;10.00;1.00
21216;DHT22;10765;50.954;5.322;2022-11-20T12:37:20;9.80;99.90
21216;DHT22;10765;50.954;5.322;2022-11-20T12:39:49;9.80;99.90
21216;DHT22;10765;50.954;5.322;2022-11-20T12:42:46;10.10;99.90
21216;DHT22;10765;50.954;5.322;2022-11-20T12:48:36;10.40;1.00
21216;DHT22;10765;50.954;5.322;2022-11-20T12:54:21;10.60;99.90
21216;DHT22;10765;50.954;5.322;2022-11-20T12:56:56;10.60;99.90
21216;DHT22;10765;50.954;5.322;2022-11-20T12:59:39;10.70;99.90
21216;DHT22;10765;50.954;5.322;2022-11-20T13:02:19;10.90;99.90
21216;DHT22;10765;50.954;5.322;2022-11-20T13:05:03;10.90;99.90
21216;DHT22;10765;50.954;5.322;2022-11-20T13:07:33;10.90;99.90
21216;DHT22;10765;50.954;5.322;2022-11-20T13:10:04;10.60;56.20
21216;DHT22;10765;50.954;5.322;2022-11-20T13:12:36;10.50;99.90
21216;DHT22;10765;50.954;5.322;2022-11-20T13:15:14;10.30;99.90
21216;DHT22;10765;50.954;5.322;2022-11-20T13:17:50;10.10;99.90
21216;DHT22;10765;50.954;5.322;2022-11-20T13:20:19;9.90;99.90
21216;DHT22;10765;50.954;5.322;2022-11-20T13:22:47;9.50;99.90
21216;DHT22;10765;50.954;5.322;2022-11-20T13:25:27;9.10;1.00
21216;DHT22;10765;50.954;5.322;2022-11-20T13:27:56;8.70;99.90
21216;DHT22;10765;50.954;5.322;2022-11-20T13:30:24;8.50;1.00
21216;DHT22;10765;50.954;5.322;2022-11-20T13:32:53;8.40;99.90
21216;DHT22;10765;50.954;5.322;2022-11-20T13:35:26;8.30;12.90
21216;DHT22;10765;50.954;5.322;2022-11-20T13:38:05;8.30;99.90
21216;DHT22;10765;50.954;5.322;2022-11-20T13:40:36;8.30;15.50
21216;DHT22;10765;50.954;5.322;2022-11-20T13:43:28;8.20;1.00
21216;DHT22;10765;50.954;5.322;2022-11-20T13:45:59;8.40;20.90
21216;DHT22;10765;50.954;5.322;2022-11-20T13:48:29;8.20;99.50
21216;DHT22;10765;50.954;5.322;2022-11-20T13:51:04;8.20;1.00
21216;DHT22;10765;50.954;5.322;2022-11-20T13:53:52;8.10;99.90
21216;DHT22;10765;50.954;5.322;2022-11-20T13:56:36;8.10;99.90
21216;DHT22;10765;50.954;5.322;2022-11-20T13:59:10;8.10;99.90
21216;DHT22;10765;50.954;5.322;2022-11-20T14:01:39;8.10;10.50
21216;DHT22;10765;50.954;5.322;2022-11-20T14:04:08;8.00;1.00
21216;DHT22;10765;50.954;5.322;2022-11-20T14:06:40;7.80;99.90
21216;DHT22;10765;50.954;5.322;2022-11-20T14:09:11;7.80;1.00
21216;DHT22;10765;50.954;5.322;2022-11-20T14:11:46;7.80;99.90
21216;DHT22;10765;50.954;5.322;2022-11-20T14:14:16;7.80;99.90
21216;DHT22;10765;50.954;5.322;2022-11-20T14:16:43;7.80;99.90
21216;DHT22;10765;50.954;5.322;2022-11-20T14:19:28;7.70;99.90
21216;DHT22;10765;50.954;5.322;2022-11-20T14:22:09;7.70;99.90
21216;DHT22;10765;50.954;5.322;2022-11-20T14:24:36;7.70;99.90
21216;DHT22;10765;50.954;5.322;2022-11-20T14:27:09;7.60;99.90
21216;DHT22;10765;50.954;5.322;2022-11-20T14:29:38;7.60;99.90
21216;DHT22;10765;50.954;5.322;2022-11-20T14:32:06;7.60;99.90
21216;DHT22;10765;50.954;5.322;2022-11-20T14:34:38;7.50;99.90
21216;DHT22;10765;50.954;5.322;2022-11-20T14:37:10;7.50;99.90
21216;DHT22;10765;50.954;5.322;2022-11-20T14:39:42;7.40;99.90
21216;DHT22;10765;50.954;5.322;2022-11-20T14:42:18;7.40;99.90
21216;DHT22;10765;50.954;5.322;2022-11-20T14:44:47;7.40;99.90
21216;DHT22;10765;50.954;5.322;2022-11-20T14:47:18;7.40;99.90
21216;DHT22;10765;50.954;5.322;2022-11-20T14:49:46;7.30;99.90
21216;DHT22;10765;50.954;5.322;2022-11-20T14:52:16;7.30;99.90
21216;DHT22;10765;50.954;5.322;2022-11-20T14:54:44;7.40;99.90
21216;DHT22;10765;50.954;5.322;2022-11-20T14:57:26;7.40;99.90
21216;DHT22;10765;50.954;5.322;2022-11-20T15:00:06;7.30;99.90
21216;DHT22;10765;50.954;5.322;2022-11-20T15:02:34;7.30;99.90
21216;DHT22;10765;50.954;5.322;2022-11-20T15:05:05;7.30;99.90
21216;DHT22;10765;50.954;5.322;2022-11-20T15:07:34;7.40;99.90
21216;DHT22;10765;50.954;5.322;2022-11-20T15:10:03;7.40;99.90
21216;DHT22;10765;50.954;5.322;2022-11-20T15:12:33;7.20;99.90
21216;DHT22;10765;50.954;5.322;2022-11-20T15:15:00;7.10;99.90
21216;DHT22;10765;50.954;5.322;2022-11-20T15:17:28;7.30;99.90
21216;DHT22;10765;50.954;5.322;2022-11-20T15:19:55;7.40;99.90
21216;DHT22;10765;50.954;5.322;2022-11-20T15:22:22;7.30;99.90
21216;DHT22;10765;50.954;5.322;2022-11-20T15:24:49;7.20;99.90
21216;DHT22;10765;50.954;5.322;2022-11-20T15:27:16;7.30;99.90
21216;DHT22;10765;50.954;5.322;2022-11-20T15:29:45;7.30;99.90
21216;DHT22;10765;50.954;5.322;2022-11-20T15:32:11;7.40;99.90
21216;DHT22;10765;50.954;5.322;2022-11-20T15:34:38;7.40;99.90
21216;DHT22;10765;50.954;5.322;2022-11-20T15:37:05;7.40;99.90
21216;DHT22;10765;50.954;5.322;2022-11-20T15:39:32;7.30;99.90
21216;DHT22;10765;50.954;5.322;2022-11-20T15:41:59;7.30;99.90
21216;DHT22;10765;50.954;5.322;2022-11-20T15:44:26;7.40;99.90
21216;DHT22;10765;50.954;5.322;2022-11-20T15:46:54;7.40;99.90
21216;DHT22;10765;50.954;5.322;2022-11-20T15:49:21;7.40;99.90
21216;DHT22;10765;50.954;5.322;2022-11-20T15:51:49;7.50;99.90
21216;DHT22;10765;50.954;5.322;2022-11-20T15:54:20;7.50;99.90
21216;DHT22;10765;50.954;5.322;2022-11-20T15:56:47;7.50;99.90
21216;DHT22;10765;50.954;5.322;2022-11-20T15:59:14;7.50;99.90
21216;DHT22;10765;50.954;5.322;2022-11-20T16:01:41;7.60;99.90
21216;DHT22;10765;50.954;5.322;2022-11-20T16:04:12;7.60;99.90
21216;DHT22;10765;50.954;5.322;2022-11-20T16:06:39;7.60;99.90
21216;DHT22;10765;50.954;5.322;2022-11-20T16:09:06;7.60;99.90